Chadstone Weather > Observations for 08/04/21

Select Day:



Observations
Time Temp Hum DP Wind Gust Dir Rain >9am Press
C % C kph kph mm hPa
00:00 18.6 93 17.5 0.0 0.0 N 0.0 1002.8
00:10 18.6 94 17.6 0.0 0.0 N 0.0 1002.7
00:20 18.6 94 17.6 0.0 0.0 N 0.0 1002.2
00:30 18.6 94 17.6 0.0 0.0 N 0.0 1002.6
00:40 18.6 95 17.8 0.0 0.0 N 0.0 1001.9
00:50 18.6 95 17.8 0.0 0.0 N 0.0 1002.2
01:00 18.6 95 17.8 0.0 0.0 N 0.0 1001.6
01:10 18.5 95 17.7 0.1 2.5 W 0.0 1001.6
01:20 18.6 95 17.8 0.0 0.0 N 0.0 1001.6
01:30 18.6 95 17.8 0.0 0.0 N 0.0 1001.6
01:40 18.6 95 17.8 0.0 1.1 NE 0.0 1000.8
01:50 18.6 95 17.8 0.1 2.5 NW 0.0 1000.8
02:00 18.6 95 17.8 0.2 2.5 N 0.0 1000.8
02:10 18.5 95 17.7 0.4 6.1 NNE 0.0 1000.2
02:20 18.5 96 17.9 0.1 3.6 NNW 0.0 1000.2
02:30 18.4 96 17.8 2.4 9.7 N 0.0 1000.2
02:40 18.4 96 17.8 3.4 8.6 N 0.0 1000.1
02:50 18.3 96 17.7 2.0 6.1 NNW 0.0 1000.0
03:00 18.3 96 17.7 1.3 6.1 NW 0.0 999.9
03:10 18.3 96 17.7 2.0 8.6 N 0.0 999.5
03:20 18.1 96 17.5 4.6 8.6 NNW 0.0 999.4
03:30 18.0 96 17.4 3.7 7.2 N 0.0 999.4
03:40 18.0 96 17.4 3.0 8.6 N 0.0 999.5
03:50 17.9 96 17.3 2.6 9.7 NNE 0.0 999.0
04:00 17.9 96 17.3 2.0 8.6 NE 0.0 999.1
04:10 17.8 96 17.2 4.1 8.6 N 0.0 999.5
04:20 17.6 96 17.0 1.8 8.6 N 0.0 999.2
04:30 17.5 96 16.9 2.6 8.6 NNW 0.0 999.4
04:40 17.5 96 16.9 1.8 6.1 NNW 0.0 1000.0
04:50 17.4 96 16.8 0.9 5.0 NNW 0.0 999.4
05:00 17.4 96 16.8 0.3 5.0 NNE 0.0 999.6
05:10 17.3 96 16.7 0.0 3.6 NNW 0.0 999.8
05:20 17.2 96 16.6 0.0 1.1 NNW 0.0 999.5
05:30 17.3 96 16.7 0.0 2.5 NNE 0.0 999.6
05:40 17.3 96 16.7 1.3 6.1 N 0.0 999.2
05:50 17.2 96 16.6 0.1 3.6 N 0.0 999.5
06:00 17.2 96 16.6 1.9 5.0 NE 0.0 999.9
06:10 17.1 96 16.5 1.1 6.1 NNE 0.0 999.3
06:20 17.0 96 16.4 0.9 6.1 NE 0.0 999.5
06:30 16.9 97 16.4 2.9 6.1 NE 0.0 999.3
06:40 16.9 97 16.4 2.3 6.1 NE 0.0 999.1
06:50 16.8 97 16.3 2.0 6.1 NE 0.0 999.1
07:00 16.6 97 16.1 3.2 7.2 NNE 0.0 999.4
07:10 16.5 97 16.0 4.8 13.3 N 0.0 999.1
07:20 16.4 97 15.9 5.2 13.3 N 0.0 999.4
07:30 16.4 97 15.9 4.4 7.2 NNE 0.0 998.9
07:40 16.4 97 15.9 3.6 7.2 N 0.0 999.1
07:50 16.6 97 16.1 1.8 6.1 NNE 0.0 999.3
08:00 16.8 97 16.3 3.2 7.2 N 0.0 998.9
08:10 17.0 96 16.4 5.8 12.2 NE 0.0 998.4
08:20 17.4 97 16.9 6.0 13.3 NNE 0.0 998.6
08:30 17.8 96 17.2 6.0 13.3 N 0.0 998.3
08:40 18.2 96 17.6 5.7 9.7 NNW 0.0 998.2
08:50 18.8 95 18.0 4.2 8.6 N 0.0 998.3
09:00 19.2 93 18.1 4.3 9.7 NNE 0.0 998.2
09:10 19.7 90 18.0 4.4 8.6 N 0.0 997.7
09:20 20.3 86 17.9 6.2 12.2 NNW 0.0 998.1
09:30 20.8 83 17.8 7.3 15.8 NNW 0.0 998.6
09:40 21.4 80 17.8 6.3 12.2 NNW 0.0 999.3
09:50 21.7 76 17.3 8.0 13.3 NNE 0.0 999.0
10:00 22.2 72 16.9 8.8 15.8 N 0.0 998.9
10:10 22.7 71 17.2 9.0 19.4 N 0.0 998.5
10:20 23.2 69 17.2 9.3 19.4 N 0.0 998.3
10:30 23.7 69 17.7 8.9 20.9 NNW 0.0 998.3
10:40 24.3 67 17.8 7.6 23.4 N 0.0 998.1
10:50 25.2 61 17.2 12.2 28.1 NNW 0.0 997.9
11:00 25.6 59 17.0 9.9 28.1 NW 0.0 997.4
11:10 25.9 57 16.8 11.6 23.4 N 0.0 997.4
11:20 26.2 55 16.5 11.2 24.5 NNW 0.0 997.5
11:30 26.5 54 16.5 12.2 24.5 NNW 0.0 997.2
11:40 26.8 54 16.7 10.0 24.5 NNW 0.0 997.3
11:50 27.2 50 15.9 9.0 25.6 NW 0.0 996.9
12:00 27.4 49 15.8 12.2 31.7 NW 0.0 996.7
12:10 27.6 48 15.6 9.5 22.0 NNW 0.0 996.5
12:20 28.1 47 15.8 9.8 20.9 NW 0.0 996.4
12:30 28.2 46 15.5 11.2 23.4 NNW 0.0 996.3
12:40 28.0 46 15.3 13.3 33.1 NW 0.0 996.3
12:50 28.1 45 15.1 13.6 28.1 NW 0.0 996.1
13:00 28.3 44 14.9 12.6 31.7 NNW 0.0 995.9
13:10 28.8 43 15.0 9.1 24.5 NNW 0.0 995.6
13:20 28.9 43 15.1 11.1 27.0 NNW 0.0 995.3
13:30 29.2 39 13.8 12.3 24.5 NNW 0.0 995.1
13:40 28.9 36 12.4 13.2 24.5 NW 0.0 995.0
13:50 28.8 35 11.8 13.6 31.7 NNW 0.0 994.9
14:00 29.3 34 11.8 8.3 24.5 WNW 0.0 995.0
14:10 29.8 34 12.3 9.7 17.3 NW 0.0 995.0
14:20 29.4 31 10.5 10.8 24.5 NNW 0.0 994.9
14:30 29.0 31 10.2 7.1 19.4 NW 0.0 994.9
14:40 28.8 30 9.5 8.8 19.4 NW 0.0 994.8
14:50 29.2 29 9.4 11.2 30.6 WNW 0.0 994.6
15:00 29.2 28 8.8 9.3 25.6 NNW 0.0 994.6
15:10 29.0 28 8.7 7.5 25.6 NNW 0.0 994.5
15:20 28.7 29 8.9 4.4 17.3 N 0.0 994.7
15:30 28.6 28 8.3 7.1 17.3 NW 0.0 994.6
15:40 28.4 29 8.7 4.9 20.9 NW 0.0 994.6
15:50 28.7 29 8.9 6.6 14.8 NW 0.0 994.4
16:00 28.4 29 8.7 5.6 24.5 NW 0.0 994.6
16:10 28.1 30 8.9 7.1 23.4 NNW 0.0 994.6
16:20 28.0 29 8.3 7.3 17.3 NNW 0.0 994.6
16:30 28.0 30 8.8 4.8 17.3 NNW 0.0 994.7
16:40 28.0 31 9.3 2.6 12.2 NNW 0.0 994.6
16:50 28.1 29 8.4 2.9 12.2 NW 0.0 994.6
17:00 28.2 27 7.5 3.2 12.2 NW 0.0 994.8
17:10 28.1 27 7.4 2.7 15.8 WNW 0.0 994.8
17:20 27.8 24 5.4 0.6 8.6 NW 0.0 994.9
17:30 27.5 23 4.5 2.9 14.8 NW 0.0 994.9
17:40 27.2 22 3.7 3.9 17.3 NW 0.0 995.1
17:50 26.9 23 4.0 2.0 15.8 NNW 0.0 995.1
18:00 26.6 23 3.8 0.2 6.1 NNW 0.0 995.2
18:10 26.2 24 4.1 0.3 8.6 NNW 0.0 995.2
18:20 26.0 24 3.9 0.0 1.1 SW 0.0 995.2
18:30 25.8 26 4.9 0.0 1.1 NW 0.0 995.0
18:40 25.4 27 5.1 0.0 0.0 N 0.0 995.1
18:50 25.1 28 5.3 0.0 0.0 N 0.0 994.9
19:00 25.0 29 5.7 0.0 0.0 N 0.0 995.0
19:10 24.8 33 7.5 0.0 0.0 N 0.0 995.0
19:20 24.5 33 7.2 0.0 0.0 N 0.0 995.0
19:30 24.5 32 6.7 0.0 0.0 N 0.0 994.9
19:40 24.5 33 7.2 0.0 0.0 N 0.0 995.0
19:50 24.4 33 7.1 0.0 0.0 N 0.0 995.1
20:00 24.4 33 7.1 0.0 0.0 N 0.0 994.9
20:10 24.4 33 7.1 0.0 2.5 N 0.0 995.0
20:20 24.3 32 6.6 0.0 2.5 NNW 0.0 994.8
20:30 24.2 37 8.6 0.0 2.5 SSW 0.0 995.6
20:40 24.0 39 9.2 0.4 5.0 SE 0.0 995.8
20:50 23.8 46 11.5 0.0 1.1 SSE 0.0 996.0
21:00 22.9 53 12.8 0.0 1.1 N 0.0 996.2
21:10 22.3 55 12.8 0.0 3.6 SSW 0.0 996.1
21:20 22.0 57 13.1 0.0 2.5 WNW 0.0 996.4
21:30 21.9 60 13.8 0.0 1.1 S 0.0 996.2
21:40 21.8 61 14.0 0.0 0.0 N 0.0 996.1
21:50 21.8 62 14.2 0.0 0.0 N 0.0 996.2
22:00 21.7 62 14.1 0.0 0.0 N 0.0 996.0
22:10 21.5 63 14.2 0.0 0.0 N 0.0 996.0
22:20 21.4 64 14.3 0.0 0.0 N 0.0 995.8
22:30 21.3 64 14.2 0.0 0.0 N 0.0 995.9
22:40 21.6 63 14.3 0.0 0.0 N 0.0 995.9
22:50 21.7 62 14.1 0.4 9.7 W 0.0 996.0
23:00 21.7 61 13.9 0.0 1.1 SW 0.0 995.8
23:10 21.6 61 13.8 0.3 8.6 WSW 0.0 995.7
23:20 21.6 62 14.0 0.3 8.6 SW 0.0 995.5
23:30 21.6 62 14.0 0.2 7.2 W 0.0 995.5
23:40 21.6 62 14.0 0.0 3.6 WNW 0.0 995.6
23:50 21.5 63 14.2 0.0 2.5 SSW 0.0 995.5